Ames, Kansas
Current Conditions -  °F | °C
As of 4:55 AM on Saturday 20 Dec 2014 (Local Time) from KCNK Reporting Station
Haze Haze  
Wind Chill: -5°   Ceiling: Unl
Heat Index: -1°   Visibility: 6mi
Dew Point: -1°   Wind: 10mph
Humidity: 96%   Direction: 220°SW
Pressure: 30.06"   Gusts: NA
Location:  39.4716°N, 97.7305°W
Report Text: KCNK 201055Z AUTO 22009KT 6SM BR CLR M01/M01 A3006 RMK AO2 SLP193 T10061011 $
Loading
Personal Weather Stations






























Interactive Weather Map New forecast layout! Learn more

10-Day Weather Forecast

Advertisements
Track Severe Weather on mobile